Sunday, October 22, 2017, 4:12 PM CDT
Back to Local

KMHK, Manhattan Regional Airport

Location: Ogden, KS, United States Lat: 39.133
Local Time: 4:12 PM CDT (21:12 GMT) Lon: -96.683
Time Zone: US/Central Elev: 1056 ft

Show me the last for .
Show Decoded

2017-10-22 15:52 METAR KMHK 222052Z 28003KT 10SM CLR 22/M02 A3009 RMK AO2 SLP187 T02171017 56021
                 =
2017-10-22 14:52 METAR KMHK 221952Z VRB03G14KT 10SM CLR 21/00 A3009 RMK AO2 SLP189 T02110000 =
2017-10-22 13:52 METAR KMHK 221852Z 27005KT 10SM CLR 21/01 A3012 RMK AO2 SLP195 T02060011 =
2017-10-22 12:52 METAR KMHK 221752Z 19004KT 10SM CLR 19/03 A3015 RMK AO2 SLP208 T01940033 10200
                 20044 58005 =
2017-10-22 11:52 METAR KMHK 221652Z 28006KT 10SM CLR 18/04 A3017 RMK AO2 SLP214 T01830039 =
2017-10-22 10:52 METAR KMHK 221552Z 25007KT 10SM CLR 16/06 A3018 RMK AO2 SLP218 T01560061 =
2017-10-22 09:52 METAR KMHK 221452Z 00000KT 10SM CLR 11/07 A3017 RMK AO2 SLP217 T01060072 53011 =
2017-10-22 08:52 METAR KMHK 221352Z 22003KT 10SM CLR 08/06 A3015 RMK AO2 SLP212 T00780061 =
2017-10-22 07:52 METAR KMHK 221252Z 23003KT 10SM CLR 05/04 A3014 RMK AO2 SLP206 T00500044 =
2017-10-22 06:52 METAR KMHK 221152Z 00000KT 10SM CLR 06/05 A3014 RMK AO2 SLP206 70013 T00610050
                 10128 20056 51029 =
2017-10-22 05:52 METAR KMHK 221052Z AUTO 00000KT 10SM CLR 06/04 A3013 RMK AO2 SLP204 T00610044 =
2017-10-22 04:52 METAR KMHK 220952Z AUTO 00000KT 10SM CLR 08/06 A3008 RMK AO2 SLP186 T00780056 =
2017-10-22 03:52 METAR KMHK 220852Z AUTO 00000KT 10SM CLR 09/06 A3005 RMK AO2 SLP173 T00940056
                 53013 =
2017-10-22 02:52 METAR KMHK 220752Z AUTO 00000KT 10SM CLR 09/07 A3004 RMK AO2 SLP172 T00940067 =
2017-10-22 01:52 METAR KMHK 220652Z AUTO VRB03KT 10SM CLR 12/06 A3000 RMK AO2 SLP156 T01170056 =
2017-10-22 00:52 METAR KMHK 220552Z AUTO 35003KT 10SM CLR 13/05 A3001 RMK AO2 SLP156 60000
                 T01280050 10172 20128 402500128 53004 =
2017-10-21 23:52 METAR KMHK 220452Z AUTO 02005KT 10SM SCT120 13/05 A3001 RMK AO2 LTG DSNT E AND S
                 SLP157 T01330050 =
2017-10-21 22:52 METAR KMHK 220352Z AUTO 01006KT 10SM CLR 14/06 A2999 RMK AO2 SLP149 T01390056 =
2017-10-21 21:52 METAR KMHK 220252Z AUTO 35008KT 320V020 10SM OVC110 15/06 A2999 RMK AO2 LTG DSNT
                 S RAE24 SLP152 P0000 60000 T01500056 51047 =
2017-10-21 20:52 METAR KMHK 220152Z 35007KT 300V010 10SM -RA OVC100 15/07 A2994 RMK AO2 LTG DSNT
                 SE RAB0059 SLP134 P0000 T01500067 =
2017-10-21 19:52 METAR KMHK 220052Z 34007G16KT 10SM BKN085 OVC110 17/06 A2991 RMK AO2 LTG DSNT SE
                 SLP125 T01670061 =
2017-10-21 18:52 METAR KMHK 212352Z 34009KT 10SM SCT070 17/07 A2985 RMK AO2 SLP102 60013
                 T01720067 10250 20172 51029 =
2017-10-21 17:52 METAR KMHK 212252Z 34007KT 10SM FEW055 SCT095 19/08 A2984 RMK AO2 LTG DSNT E AND
                 SE SLP100 T01890083 =
2017-10-21 16:52 METAR KMHK 212152Z 33007KT 310V020 10SM BKN050 OVC090 20/09 A2981 RMK AO2 SLP087
                 T02000089 =

Support USWX by starting your Amazon purchase here.